Time;durP1;ratioP1;P1;durP2;ratioP2;P2;SDS_P1;SDS_P2;PMS_P1;PMS_P2;Temp;Humidity;BMP_temperature;BMP_pressure;BME280_temperature;BME280_humidity;BME280_pressure;Samples;Min_cycle;Max_cycle;Signal;HPM_P1;HPM_P2
2023/07/30 00:02:25;;;;;;;;;;;;;;;-144.99;100.00;52346.19;5007585;28;19960;-76
2023/07/30 00:04:51;;;;;;;;;;;;;;;-144.99;100.00;52287.06;5017370;28;20054;-75
2023/07/30 00:07:18;;;;;;;;;;;;;;;-144.99;100.00;52327.84;5007836;28;19948;-74
2023/07/30 00:09:44;;;;;;;;;;;;;;;-144.99;100.00;52317.66;5016864;28;19972;-74
2023/07/30 00:12:11;;;;;;;;;;;;;;;-144.99;100.00;52342.09;5017373;28;19945;-74
2023/07/30 00:14:37;;;;;;;;;;;;;;;-144.99;100.00;52362.50;5018593;28;19959;-74
2023/07/30 00:17:05;;;;;;;;;;;;;;;-144.99;100.00;52309.50;5020279;28;19931;-74
2023/07/30 00:19:32;;;;;;;;;;;;;;;-144.99;100.00;52329.88;5017512;28;20328;-74
2023/07/30 00:21:58;;;;;;;;;;;;;;;-144.99;100.00;52305.41;5021954;28;20470;-74
2023/07/30 00:24:24;;;;;;;;;;;;;;;-144.99;100.00;52317.66;5009591;28;19958;-74
2023/07/30 00:26:51;;;;;;;;;;;;;;;-144.99;100.00;52350.25;5014822;28;20069;-75
2023/07/30 00:29:17;;;;;;;;;;;;;;;-144.99;100.00;52338.03;5017294;28;19961;-75
2023/07/30 00:31:44;;;;;;;;;;;;;;;-144.99;100.00;52346.19;5008810;28;20389;-75
2023/07/30 00:34:12;;;;;;;;;;;;;;;-144.99;100.00;52305.41;5006401;28;19960;-74
2023/07/30 00:36:38;;;;;;;;;;;;;;;-144.99;100.00;52358.41;5007754;28;19935;-75
2023/07/30 00:39:05;;;;;;;;;;;;;;;-144.99;100.00;52325.81;5007971;28;19931;-72
2023/07/30 00:41:31;;;;;;;;;;;;;;;-144.99;100.00;52333.94;5010159;28;20583;-72
2023/07/30 00:43:57;;;;;;;;;;;;;;;-144.99;100.00;52336.00;5020062;28;20086;-72
2023/07/30 00:46:24;;;;;;;;;;;;;;;-144.99;100.00;52336.00;5007668;28;20044;-72
2023/07/30 00:48:51;;;;;;;;;;;;;;;-144.99;100.00;52333.94;5008196;28;19929;-73
2023/07/30 00:51:20;;;;;;;;;;;;;;;-144.99;100.00;52338.03;5007242;28;19945;-72
2023/07/30 00:53:46;;;;;;;;;;;;;;;-144.99;100.00;52313.56;5006793;28;19955;-72
2023/07/30 00:56:13;;;;;;;;;;;;;;;-144.99;100.00;52378.78;5018031;28;20067;-73
2023/07/30 00:58:40;;;;;;;;;;;;;;;-144.99;100.00;52309.50;5017331;28;19971;-73
2023/07/30 01:01:07;;;;;;;;;;;;;;;-144.99;100.00;52309.50;5006585;28;19950;-73
2023/07/30 01:03:33;;;;;;;;;;;;;;;-144.99;100.00;52350.25;5004650;28;19962;-71
2023/07/30 01:06:00;;;;;;;;;;;;;;;-144.99;100.00;52346.19;5003772;28;19940;-71
2023/07/30 01:08:28;;;;;;;;;;;;;;;-144.99;100.00;52340.06;5005890;28;19940;-71
2023/07/30 01:10:54;;;;;;;;;;;;;;;-144.99;100.00;52340.06;5005896;28;19928;-71
2023/07/30 01:13:21;;;;;;;;;;;;;;;-144.99;100.00;52321.72;5004851;28;19955;-71
2023/07/30 01:15:48;;;;;;;;;;;;;;;-144.99;100.00;52333.94;5003249;28;19963;-71
2023/07/30 01:18:14;;;;;;;;;;;;;;;-144.99;100.00;52366.56;5009778;28;19945;-71
2023/07/30 01:20:41;;;;;;;;;;;;;;;-144.99;100.00;52325.81;5010436;28;19944;-71
2023/07/30 01:23:08;;;;;;;;;;;;;;;-144.99;100.00;52329.88;5008910;28;19968;-70
2023/07/30 01:25:37;;;;;;;;;;;;;;;-144.99;100.00;52333.94;5018279;28;19961;-72
2023/07/30 01:28:05;;;;;;;;;;;;;;;-144.99;100.00;52372.69;5023596;28;19947;-71
2023/07/30 01:30:34;;;;;;;;;;;;;;;-144.99;100.00;52325.81;5009300;28;19955;-72
2023/07/30 01:33:02;;;;;;;;;;;;;;;-144.99;100.00;52346.19;5022948;28;19998;-73
2023/07/30 01:35:29;;;;;;;;;;;;;;;-144.99;100.00;52338.03;5016844;28;20184;-70
2023/07/30 01:37:56;;;;;;;;;;;;;;;-144.99;100.00;52342.09;5010527;28;20026;-75
2023/07/30 01:40:24;;;;;;;;;;;;;;;-144.99;100.00;52329.88;5008312;28;19944;-74
2023/07/30 01:42:51;;;;;;;;;;;;;;;-144.99;100.00;52342.09;5010910;28;19929;-74
2023/07/30 01:45:17;;;;;;;;;;;;;;;-144.99;100.00;52319.69;5024581;28;21557;-75
2023/07/30 01:47:44;;;;;;;;;;;;;;;-144.99;100.00;52311.53;5020884;28;19962;-74
2023/07/30 01:50:11;;;;;;;;;;;;;;;-144.99;100.00;52333.94;5017170;28;20002;-75
2023/07/30 01:52:37;;;;;;;;;;;;;;;-144.99;100.00;52350.25;5018206;28;19971;-75
2023/07/30 01:55:04;;;;;;;;;;;;;;;-144.99;100.00;52329.88;5009758;28;19960;-74
2023/07/30 01:57:41;;;;;;;;;;;;;;;-144.99;100.00;52305.41;5000068;28;10000564;-74
2023/07/30 02:00:08;;;;;;;;;;;;;;;-144.99;100.00;52331.91;5023660;28;20569;-74
2023/07/30 02:02:35;;;;;;;;;;;;;;;-144.99;100.00;52338.03;5017811;28;19945;-74
2023/07/30 02:05:02;;;;;;;;;;;;;;;-144.99;100.00;52376.75;5012797;28;19951;-74
2023/07/30 02:07:28;;;;;;;;;;;;;;;-144.99;100.00;52350.25;5012370;28;20037;-76
2023/07/30 02:09:54;;;;;;;;;;;;;;;-144.99;100.00;52325.81;5010920;28;20085;-73
2023/07/30 02:12:21;;;;;;;;;;;;;;;-144.99;100.00;52329.88;5011463;28;19995;-74
2023/07/30 02:14:49;;;;;;;;;;;;;;;-144.99;100.00;52338.03;5012567;28;19971;-74
2023/07/30 02:17:15;;;;;;;;;;;;;;;-144.99;100.00;52366.56;5013757;28;19956;-74
2023/07/30 02:19:42;;;;;;;;;;;;;;;-144.99;100.00;52354.34;5019961;28;19980;-74
2023/07/30 02:22:09;;;;;;;;;;;;;;;-144.99;100.00;52329.88;5020275;28;19943;-75
2023/07/30 02:24:35;;;;;;;;;;;;;;;-144.99;100.00;52374.72;5013033;28;20436;-75
2023/07/30 02:27:02;;;;;;;;;;;;;;;-144.99;100.00;52329.88;5028499;28;20044;-76
2023/07/30 02:29:28;;;;;;;;;;;;;;;-144.99;100.00;52358.41;5030218;28;20157;-74
2023/07/30 02:31:56;;;;;;;;;;;;;;;-144.99;100.00;52311.53;5021765;28;19945;-74
2023/07/30 02:34:22;;;;;;;;;;;;;;;-144.99;100.00;52382.88;5021745;28;19956;-73
2023/07/30 02:36:50;;;;;;;;;;;;;;;-144.99;100.00;52360.44;5012714;28;19952;-73
2023/07/30 02:39:16;;;;;;;;;;;;;;;-144.99;100.00;52325.81;5013495;28;19946;-73
2023/07/30 02:41:42;;;;;;;;;;;;;;;-144.99;100.00;52342.09;5011630;28;19944;-74
2023/07/30 02:44:09;;;;;;;;;;;;;;;-144.99;100.00;52340.06;5011505;28;19959;-73
2023/07/30 02:46:35;;;;;;;;;;;;;;;-144.99;100.00;52338.03;5016007;28;19992;-73
2023/07/30 02:49:03;;;;;;;;;;;;;;;-144.99;100.00;52346.19;5024303;28;19925;-73
2023/07/30 02:51:29;;;;;;;;;;;;;;;-144.99;100.00;52321.72;5024499;28;20405;-73
2023/07/30 02:53:58;;;;;;;;;;;;;;;-144.99;100.00;52338.03;5025121;28;20044;-72
2023/07/30 02:56:24;;;;;;;;;;;;;;;-144.99;100.00;52366.56;5021892;28;19944;-72
2023/07/30 02:58:50;;;;;;;;;;;;;;;-144.99;100.00;52356.38;5025814;28;19955;-73
2023/07/30 03:01:17;;;;;;;;;;;;;;;-144.99;100.00;52333.94;5017704;28;20627;-73
2023/07/30 03:03:43;;;;;;;;;;;;;;;-144.99;100.00;52319.69;5022434;28;20422;-74
2023/07/30 03:06:11;;;;;;;;;;;;;;;-144.99;100.00;52317.66;5020375;28;20020;-74
2023/07/30 03:08:38;;;;;;;;;;;;;;;-144.99;100.00;52358.41;5019709;28;19925;-74
2023/07/30 03:11:04;;;;;;;;;;;;;;;-144.99;100.00;52342.09;5015245;28;19925;-75
2023/07/30 03:13:31;;;;;;;;;;;;;;;-144.99;100.00;52342.09;5023961;28;20005;-75
2023/07/30 03:15:57;;;;;;;;;;;;;;;-144.99;100.00;52309.50;5015331;28;19960;-76
2023/07/30 03:18:24;;;;;;;;;;;;;;;-144.99;100.00;52321.72;5010769;28;20026;-75
2023/07/30 03:20:50;;;;;;;;;;;;;;;-144.99;100.00;52378.78;5013721;28;20048;-76
2023/07/30 03:23:18;;;;;;;;;;;;;;;-144.99;100.00;52301.34;5013678;28;20046;-76
2023/07/30 03:25:44;;;;;;;;;;;;;;;-144.99;100.00;52370.63;5011237;28;19935;-76
2023/07/30 03:28:11;;;;;;;;;;;;;;;-144.99;100.00;52366.56;5007679;28;20691;-76
2023/07/30 03:30:37;;;;;;;;;;;;;;;-144.99;100.00;52336.00;5013946;28;20022;-74
2023/07/30 03:33:03;;;;;;;;;;;;;;;-144.99;100.00;52313.56;5011346;28;19937;-74
2023/07/30 03:35:30;;;;;;;;;;;;;;;-144.99;100.00;52342.09;5016131;28;20012;-73
2023/07/30 03:37:56;;;;;;;;;;;;;;;-144.99;100.00;52346.19;5012038;28;19968;-75
2023/07/30 03:40:24;;;;;;;;;;;;;;;-144.99;100.00;52360.44;5011027;28;19980;-75
2023/07/30 03:42:50;;;;;;;;;;;;;;;-144.99;100.00;52352.28;5014741;28;19935;-75
2023/07/30 03:45:17;;;;;;;;;;;;;;;-144.99;100.00;52327.84;5012210;28;19931;-74
2023/07/30 03:47:43;;;;;;;;;;;;;;;-144.99;100.00;52358.41;5016480;28;20388;-75
2023/07/30 03:50:10;;;;;;;;;;;;;;;-144.99;100.00;52370.63;5015827;28;19960;-75
2023/07/30 03:52:36;;;;;;;;;;;;;;;-144.99;100.00;52329.88;5011987;28;19956;-73
2023/07/30 03:55:03;;;;;;;;;;;;;;;-144.99;100.00;52315.59;5010059;28;21231;-74
2023/07/30 03:57:31;;;;;;;;;;;;;;;-144.99;100.00;52354.34;5013145;28;20830;-76
2023/07/30 03:59:57;;;;;;;;;;;;;;;-144.99;100.00;52338.03;5021893;28;19952;-74
2023/07/30 04:02:24;;;;;;;;;;;;;;;-144.99;100.00;52358.41;5012798;28;19933;-75
2023/07/30 04:04:50;;;;;;;;;;;;;;;-144.99;100.00;52350.25;5013489;28;20441;-76
2023/07/30 04:07:17;;;;;;;;;;;;;;;-144.99;100.00;52317.66;5009840;28;20025;-77
2023/07/30 04:09:43;;;;;;;;;;;;;;;-144.99;100.00;52358.41;5013406;28;19964;-75
2023/07/30 04:12:10;;;;;;;;;;;;;;;-144.99;100.00;52338.03;5015528;28;20045;-74
2023/07/30 04:14:37;;;;;;;;;;;;;;;-144.99;100.00;52350.25;5024951;28;20096;-75
2023/07/30 04:17:04;;;;;;;;;;;;;;;-144.99;100.00;52342.09;5035580;28;19953;-75
2023/07/30 04:19:31;;;;;;;;;;;;;;;-144.99;100.00;52395.09;5015972;28;20059;-75
2023/07/30 04:21:57;;;;;;;;;;;;;;;-144.99;100.00;52368.59;5012789;28;19969;-72
2023/07/30 04:24:23;;;;;;;;;;;;;;;-144.99;100.00;52354.34;5022179;28;20455;-74
2023/07/30 04:26:50;;;;;;;;;;;;;;;-144.99;100.00;52362.50;5025165;28;19986;-73
2023/07/30 04:29:16;;;;;;;;;;;;;;;-144.99;100.00;52338.03;5019559;28;20099;-73
2023/07/30 04:31:44;;;;;;;;;;;;;;;-144.99;100.00;52350.25;5028223;28;20289;-73
2023/07/30 04:34:10;;;;;;;;;;;;;;;-144.99;100.00;52329.88;5015643;28;20661;-74
2023/07/30 04:36:37;;;;;;;;;;;;;;;-144.99;100.00;52354.34;5012894;28;20364;-73
2023/07/30 04:39:03;;;;;;;;;;;;;;;-144.99;100.00;52370.63;5021656;28;19943;-73
2023/07/30 04:41:30;;;;;;;;;;;;;;;-144.99;100.00;52362.50;5034483;28;19962;-75
2023/07/30 04:43:56;;;;;;;;;;;;;;;-144.99;100.00;52346.19;5040149;28;19979;-73
2023/07/30 04:46:23;;;;;;;;;;;;;;;-144.99;100.00;52325.81;5027999;28;20199;-74
2023/07/30 04:48:50;;;;;;;;;;;;;;;-144.99;100.00;52321.72;5027015;28;19995;-74
2023/07/30 04:51:17;;;;;;;;;;;;;;;-144.99;100.00;52336.00;5023947;28;20065;-75
2023/07/30 04:53:43;;;;;;;;;;;;;;;-144.99;100.00;52354.34;5023349;28;20013;-74
2023/07/30 04:56:10;;;;;;;;;;;;;;;-144.99;100.00;52342.09;5020519;28;20408;-73
2023/07/30 04:58:36;;;;;;;;;;;;;;;-144.99;100.00;52344.16;5037591;28;20043;-73
2023/07/30 05:01:02;;;;;;;;;;;;;;;-144.99;100.00;52350.25;5045953;28;19983;-74
2023/07/30 05:03:29;;;;;;;;;;;;;;;-144.99;100.00;52350.25;5047443;28;19959;-73
2023/07/30 05:05:57;;;;;;;;;;;;;;;-144.99;100.00;52338.03;5044077;28;19951;-75
2023/07/30 05:08:23;;;;;;;;;;;;;;;-144.99;100.00;52350.25;5040811;28;19956;-73
2023/07/30 05:10:49;;;;;;;;;;;;;;;-144.99;100.00;52327.84;5044711;28;19967;-73
2023/07/30 05:13:16;;;;;;;;;;;;;;;-144.99;100.00;52321.72;5045486;28;19943;-75
2023/07/30 05:15:42;;;;;;;;;;;;;;;-144.99;100.00;52293.19;5029305;28;19999;-74
2023/07/30 05:18:09;;;;;;;;;;;;;;;-144.99;100.00;52313.56;5015635;28;20533;-75
2023/07/30 05:20:35;;;;;;;;;;;;;;;-144.99;100.00;52338.03;5016015;28;20267;-76
2023/07/30 05:23:03;;;;;;;;;;;;;;;-144.99;100.00;52321.72;5013136;28;19926;-75
2023/07/30 05:25:29;;;;;;;;;;;;;;;-144.99;100.00;52368.59;5016723;28;19929;-74
2023/07/30 05:27:56;;;;;;;;;;;;;;;-144.99;100.00;52329.88;5014923;28;19967;-76
2023/07/30 05:30:22;;;;;;;;;;;;;;;-144.99;100.00;52297.25;5017856;28;19935;-75
2023/07/30 05:32:49;;;;;;;;;;;;;;;-144.99;100.00;52309.50;5013857;28;19944;-72
2023/07/30 05:35:15;;;;;;;;;;;;;;;-144.99;100.00;52313.56;5014256;28;19950;-71
2023/07/30 05:37:41;;;;;;;;;;;;;;;-144.99;100.00;52301.34;5014503;28;20056;-71
2023/07/30 05:40:10;;;;;;;;;;;;;;;-144.99;100.00;52293.19;5014937;28;19983;-70
2023/07/30 05:42:36;;;;;;;;;;;;;;;-144.99;100.00;52311.53;5015430;28;19933;-70
2023/07/30 05:45:03;;;;;;;;;;;;;;;-144.99;100.00;52321.72;5019401;28;20308;-72
2023/07/30 05:47:29;;;;;;;;;;;;;;;-144.99;100.00;52287.06;5014380;28;19955;-70
2023/07/30 05:49:56;;;;;;;;;;;;;;;-144.99;100.00;52307.47;5014007;28;20014;-72
2023/07/30 05:52:22;;;;;;;;;;;;;;;-144.99;100.00;52297.25;5014349;28;19955;-72
2023/07/30 05:54:49;;;;;;;;;;;;;;;-144.99;100.00;52325.81;5016751;28;19926;-72
2023/07/30 05:57:16;;;;;;;;;;;;;;;-144.99;100.00;52325.81;5020407;28;20533;-72
2023/07/30 05:59:43;;;;;;;;;;;;;;;-144.99;100.00;52346.19;5015389;28;19998;-72
2023/07/30 06:02:09;;;;;;;;;;;;;;;-144.99;100.00;52338.03;5015417;28;20095;-72
2023/07/30 06:04:36;;;;;;;;;;;;;;;-144.99;100.00;52346.19;5013674;28;19936;-73
2023/07/30 06:07:02;;;;;;;;;;;;;;;-144.99;100.00;52336.00;5010487;28;20381;-73
2023/07/30 06:09:29;;;;;;;;;;;;;;;-144.99;100.00;52305.41;5011198;28;19953;-73
2023/07/30 06:11:56;;;;;;;;;;;;;;;-144.99;100.00;52323.75;5009887;28;19929;-74
2023/07/30 06:14:23;;;;;;;;;;;;;;;-144.99;100.00;52331.91;5010448;28;19933;-74
2023/07/30 06:16:50;;;;;;;;;;;;;;;-144.99;100.00;52313.56;5010804;28;20702;-75
2023/07/30 06:19:16;;;;;;;;;;;;;;;-144.99;100.00;52317.66;5010588;28;19939;-74
2023/07/30 06:21:43;;;;;;;;;;;;;;;-144.99;99.88;52295.22;5007959;28;19951;-73
2023/07/30 06:24:09;;;;;;;;;;;;;;;-144.99;99.79;52301.34;5009273;28;19936;-75
2023/07/30 06:26:35;;;;;;;;;;;;;;;-144.99;99.99;52297.25;5009453;28;19946;-74
2023/07/30 06:29:02;;;;;;;;;;;;;;;-144.99;99.50;52309.50;5008490;28;20589;-75
2023/07/30 06:31:30;;;;;;;;;;;;;;;-144.99;99.00;52313.56;5007060;28;19963;-76
2023/07/30 06:33:56;;;;;;;;;;;;;;;-144.99;98.41;52333.94;5009092;28;20059;-74
2023/07/30 06:36:23;;;;;;;;;;;;;;;-144.99;99.10;52297.25;5008022;28;19929;-75
2023/07/30 06:38:49;;;;;;;;;;;;;;;-144.99;99.17;52313.56;5007433;28;19983;-73
2023/07/30 06:41:15;;;;;;;;;;;;;;;-144.99;99.13;52297.25;5007665;28;19974;-74
2023/07/30 06:43:42;;;;;;;;;;;;;;;-144.99;98.73;52289.13;5007684;28;20055;-75
2023/07/30 06:46:08;;;;;;;;;;;;;;;-144.99;99.29;52321.72;5007507;28;20484;-73
2023/07/30 06:48:36;;;;;;;;;;;;;;;-144.99;99.40;52321.72;5005922;28;19933;-73
2023/07/30 06:51:06;;;;;;;;;;;;;;;-144.99;99.13;52301.34;5005498;28;19966;-74
2023/07/30 06:53:33;;;;;;;;;;;;;;;-144.99;97.90;52301.34;5009286;28;20396;-72
2023/07/30 06:55:59;;;;;;;;;;;;;;;-144.99;97.45;52311.53;5005378;28;19946;-73
2023/07/30 06:58:25;;;;;;;;;;;;;;;-144.99;97.78;52321.72;5007141;28;20118;-74
2023/07/30 07:00:52;;;;;;;;;;;;;;;-144.99;97.09;52276.88;5008175;28;20056;-73
2023/07/30 07:03:18;;;;;;;;;;;;;;;-144.99;97.25;52268.72;5014577;28;19991;-74
2023/07/30 07:05:53;;;;;;;;;;;;;;;-144.99;97.13;52313.56;5010218;28;19945;-73
2023/07/30 07:08:19;;;;;;;;;;;;;;;-144.99;96.23;52280.97;5007540;28;20633;-73
2023/07/30 07:10:45;;;;;;;;;;;;;;;-144.99;96.54;52317.66;5005869;28;19954;-72
2023/07/30 07:13:15;;;;;;;;;;;;;;;-144.99;96.23;52283.00;5007912;28;19984;-76
2023/07/30 07:15:41;;;;;;;;;;;;;;;-144.99;96.24;52311.53;5010722;28;19929;-74
2023/07/30 07:18:07;;;;;;;;;;;;;;;-144.99;96.30;52256.50;5008946;28;20693;-75
2023/07/30 07:20:34;;;;;;;;;;;;;;;-144.99;96.22;52260.56;5009372;28;20333;-76
2023/07/30 07:23:02;;;;;;;;;;;;;;;-144.99;96.05;52329.88;5006873;28;19935;-75
2023/07/30 07:25:28;;;;;;;;;;;;;;;-144.99;95.35;52303.38;5008998;28;19972;-73
2023/07/30 07:27:54;;;;;;;;;;;;;;;-144.99;95.41;52338.03;5008250;28;20569;-75
2023/07/30 07:30:21;;;;;;;;;;;;;;;-144.99;96.06;52285.03;5009250;28;19967;-74
2023/07/30 07:32:50;;;;;;;;;;;;;;;-144.99;95.37;52297.25;5005662;28;19976;-75
2023/07/30 07:35:16;;;;;;;;;;;;;;;-144.99;94.23;52297.25;5009808;28;20050;-76
2023/07/30 07:37:43;;;;;;;;;;;;;;;-144.99;94.24;52264.66;5009259;28;20331;-74
2023/07/30 07:40:11;;;;;;;;;;;;;;;-144.99;93.58;52272.81;5005799;28;19925;-74
2023/07/30 07:42:38;;;;;;;;;;;;;;;-144.99;92.35;52276.88;5010634;28;19991;-77
2023/07/30 07:45:05;;;;;;;;;;;;;;;-144.99;93.36;52303.38;5014399;28;19935;-75
2023/07/30 07:47:31;;;;;;;;;;;;;;;-144.99;92.03;52264.66;5005092;28;19941;-75
2023/07/30 07:49:58;;;;;;;;;;;;;;;-144.99;90.20;52248.34;5007499;28;21791;-77
2023/07/30 07:52:25;;;;;;;;;;;;;;;-144.99;90.67;52260.56;5009107;28;19966;-76
2023/07/30 07:54:51;;;;;;;;;;;;;;;-144.99;90.10;52268.72;5005807;28;19933;-73
2023/07/30 07:57:19;;;;;;;;;;;;;;;-144.99;89.74;52268.72;5007670;28;19933;-74
2023/07/30 07:59:45;;;;;;;;;;;;;;;-144.99;90.27;52280.97;5015921;28;19963;-75
2023/07/30 08:02:12;;;;;;;;;;;;;;;-144.99;89.94;52297.25;5022931;28;19950;-77
2023/07/30 08:04:38;;;;;;;;;;;;;;;-144.99;89.39;52272.81;5027388;28;19952;-74
2023/07/30 08:07:05;;;;;;;;;;;;;;;-144.99;88.62;52285.03;5020816;28;19943;-76
2023/07/30 08:09:32;;;;;;;;;;;;;;;-144.99;89.09;52313.56;5018131;28;19990;-76
2023/07/30 08:11:59;;;;;;;;;;;;;;;-144.99;88.96;52305.41;5010145;28;20004;-76
2023/07/30 08:14:27;;;;;;;;;;;;;;;-144.99;89.24;52299.31;5011238;28;20019;-76
2023/07/30 08:16:54;;;;;;;;;;;;;;;-144.99;89.42;52280.97;5011908;28;19933;-75
2023/07/30 08:19:20;;;;;;;;;;;;;;;-144.99;89.91;52244.28;5011314;28;19960;-75
2023/07/30 08:21:47;;;;;;;;;;;;;;;-144.99;89.50;52240.19;5012507;28;19929;-75
2023/07/30 08:24:13;;;;;;;;;;;;;;;-144.99;88.55;52227.97;5011401;28;19935;-75
2023/07/30 08:26:39;;;;;;;;;;;;;;;-144.99;87.67;52211.66;5009292;28;19940;-73
2023/07/30 08:29:09;;;;;;;;;;;;;;;-144.99;88.04;52236.13;5010475;28;20024;-77
2023/07/30 08:31:37;;;;;;;;;;;;;;;-144.99;87.67;52283.00;5010900;28;19976;-77
2023/07/30 08:34:04;;;;;;;;;;;;;;;-144.99;88.01;52244.28;5012421;28;19956;-76
2023/07/30 08:36:30;;;;;;;;;;;;;;;-144.99;88.75;52227.97;5011393;28;19972;-75
2023/07/30 08:38:57;;;;;;;;;;;;;;;-144.99;89.31;52289.13;5014322;28;20760;-74
2023/07/30 08:41:23;;;;;;;;;;;;;;;-144.99;89.46;52248.34;5011345;28;19940;-77
2023/07/30 08:43:51;;;;;;;;;;;;;;;-144.99;88.93;52291.16;5012041;28;20028;-77
2023/07/30 08:46:18;;;;;;;;;;;;;;;-144.99;89.08;52301.34;5012714;28;19968;-76
2023/07/30 08:48:46;;;;;;;;;;;;;;;-144.99;88.72;52236.13;5013478;28;19936;-74
2023/07/30 08:51:13;;;;;;;;;;;;;;;-144.99;87.49;52301.34;5011759;28;19964;-76
2023/07/30 08:53:40;;;;;;;;;;;;;;;-144.99;87.33;52260.56;5014615;28;20049;-76
2023/07/30 08:56:07;;;;;;;;;;;;;;;-144.99;86.62;52264.66;5013634;28;20047;-78
2023/07/30 08:58:34;;;;;;;;;;;;;;;-144.99;84.68;52264.66;5012679;28;19993;-76
2023/07/30 09:01:01;;;;;;;;;;;;;;;-144.99;85.49;52276.88;5013974;28;19949;-76
2023/07/30 09:03:28;;;;;;;;;;;;;;;-144.99;85.46;52289.13;5016115;28;20318;-77
2023/07/30 09:05:56;;;;;;;;;;;;;;;-144.99;85.27;52280.97;5015426;28;19980;-75
2023/07/30 09:08:24;;;;;;;;;;;;;;;-144.99;86.35;52301.34;5015561;28;20051;-76
2023/07/30 09:10:51;;;;;;;;;;;;;;;-144.99;86.21;52270.78;5017601;28;19955;-77
2023/07/30 09:13:22;;;;;;;;;;;;;;;-144.99;85.98;52285.03;5021777;28;19940;-78
2023/07/30 09:15:49;;;;;;;;;;;;;;;-144.99;86.44;52280.97;5018382;28;19947;-75
2023/07/30 09:18:17;;;;;;;;;;;;;;;-144.99;85.63;52272.81;5021247;28;20060;-77
2023/07/30 09:20:44;;;;;;;;;;;;;;;-144.99;85.62;52291.16;4673516;28;10000419;-75
2023/07/30 09:23:13;;;;;;;;;;;;;;;-144.99;85.57;52276.88;5014696;28;20004;-78
2023/07/30 09:25:39;;;;;;;;;;;;;;;-144.99;85.58;52301.34;5024791;28;20004;-78
2023/07/30 09:28:06;;;;;;;;;;;;;;;-144.99;86.44;52276.88;5024234;28;20011;-74
2023/07/30 09:30:33;;;;;;;;;;;;;;;-144.99;87.32;52305.41;5021466;28;19936;-76
2023/07/30 09:33:00;;;;;;;;;;;;;;;-144.99;86.25;52268.72;5020989;28;19963;-77
2023/07/30 09:35:27;;;;;;;;;;;;;;;-144.99;85.31;52276.88;5020799;28;20032;-76
2023/07/30 09:37:58;;;;;;;;;;;;;;;-144.99;85.81;52289.13;5023369;28;20503;-76
2023/07/30 09:40:36;;;;;;;;;;;;;;;-144.99;85.89;52280.97;5029750;28;20442;-78
2023/07/30 09:43:03;;;;;;;;;;;;;;;-144.99;84.73;52293.19;5023550;28;19977;-76
2023/07/30 09:45:33;;;;;;;;;;;;;;;-144.99;84.50;52236.13;5016685;28;19990;-77
2023/07/30 09:48:00;;;;;;;;;;;;;;;-144.99;84.10;52285.03;5046591;28;19967;-79
2023/07/30 09:50:27;;;;;;;;;;;;;;;-144.99;82.69;52248.34;5049365;28;19935;-79
2023/07/30 09:52:53;;;;;;;;;;;;;;;-144.99;82.72;52248.34;5023885;28;19925;-75
2023/07/30 09:55:20;;;;;;;;;;;;;;;-144.99;82.85;52293.19;5018986;28;19969;-76
2023/07/30 09:57:49;;;;;;;;;;;;;;;-144.99;82.81;52305.41;5019183;28;20026;-76
2023/07/30 10:00:16;;;;;;;;;;;;;;;-144.99;82.72;52289.13;5029869;28;20433;-78
2023/07/30 10:02:46;;;;;;;;;;;;;;;-144.99;82.53;52289.13;5032022;28;20087;-77
2023/07/30 10:05:15;;;;;;;;;;;;;;;-144.99;82.69;52264.66;5030338;28;19964;-79
2023/07/30 10:07:44;;;;;;;;;;;;;;;-144.99;82.93;52268.72;5032543;28;19977;-77
2023/07/30 10:10:12;;;;;;;;;;;;;;;-144.99;83.66;52276.88;5034613;28;20082;-74
2023/07/30 10:12:40;;;;;;;;;;;;;;;-144.99;83.46;52289.13;5034271;28;19973;-75
2023/07/30 10:15:09;;;;;;;;;;;;;;;-144.99;83.74;52289.13;5036907;28;19963;-79
2023/07/30 10:17:35;;;;;;;;;;;;;;;-144.99;82.02;52256.50;5036894;28;19929;-77
2023/07/30 10:20:17;;;;;;;;;;;;;;;-144.99;81.58;52264.66;5032405;28;19971;-78
2023/07/30 10:22:46;;;;;;;;;;;;;;;-144.99;80.78;52250.38;5035528;28;20084;-76
2023/07/30 10:25:13;;;;;;;;;;;;;;;-144.99;81.32;52293.19;5027188;28;19997;-78
2023/07/30 10:27:43;;;;;;;;;;;;;;;-144.99;79.99;52232.03;5030970;28;20055;-78
2023/07/30 10:30:12;;;;;;;;;;;;;;;-144.99;78.12;52291.16;5033350;28;19952;-78
2023/07/30 10:32:39;;;;;;;;;;;;;;;-144.99;77.32;52197.41;5038701;28;19994;-77
2023/07/30 10:35:05;;;;;;;;;;;;;;;-144.99;74.78;52260.56;5032933;28;20070;-78
2023/07/30 10:37:32;;;;;;;;;;;;;;;-144.99;75.26;52244.28;5035543;28;19962;-78
2023/07/30 10:39:58;;;;;;;;;;;;;;;-144.99;75.43;52248.34;5035918;28;19939;-80
2023/07/30 10:42:25;;;;;;;;;;;;;;;-144.99;74.60;52280.97;5032643;28;20403;-77
2023/07/30 10:44:51;;;;;;;;;;;;;;;-144.99;74.78;52280.97;5030794;28;19976;-79
2023/07/30 10:47:19;;;;;;;;;;;;;;;-144.99;74.36;52264.66;5030009;28;19978;-74
2023/07/30 10:49:46;;;;;;;;;;;;;;;-144.99;74.95;52258.53;5019148;28;20020;-79
2023/07/30 10:52:13;;;;;;;;;;;;;;;-144.99;74.92;52291.16;5030484;28;19962;-81
2023/07/30 10:54:40;;;;;;;;;;;;;;;-144.99;73.93;52280.97;5027326;28;20730;-83
2023/07/30 10:57:07;;;;;;;;;;;;;;;-144.99;74.21;52260.56;5022173;28;19964;-79
2023/07/30 10:59:36;;;;;;;;;;;;;;;-144.99;73.53;52270.78;5023595;28;20029;-79
2023/07/30 11:02:02;;;;;;;;;;;;;;;-144.99;73.49;52280.97;5026182;28;19929;-81
2023/07/30 11:04:34;;;;;;;;;;;;;;;-144.99;71.83;52252.44;5033732;28;19950;-83
2023/07/30 11:07:01;;;;;;;;;;;;;;;-144.99;71.07;52266.69;5035614;28;19965;-79
2023/07/30 11:09:28;;;;;;;;;;;;;;;-144.99;70.15;52252.44;5022722;28;19943;-77
2023/07/30 11:11:56;;;;;;;;;;;;;;;-144.99;70.25;52264.66;5028313;28;19959;-77
2023/07/30 11:14:25;;;;;;;;;;;;;;;-144.99;70.26;52244.28;5018560;28;19955;-75
2023/07/30 11:16:54;;;;;;;;;;;;;;;-144.99;70.51;52244.28;5025237;28;19925;-76
2023/07/30 11:19:22;;;;;;;;;;;;;;;-144.99;70.59;52272.81;5029266;28;19964;-77
2023/07/30 11:21:51;;;;;;;;;;;;;;;-144.99;70.70;52254.47;5025045;28;19925;-76
2023/07/30 11:24:17;;;;;;;;;;;;;;;-144.99;71.27;52285.03;5026438;28;19939;-77
2023/07/30 11:26:44;;;;;;;;;;;;;;;-144.99;70.71;52240.19;5019911;28;19926;-77
2023/07/30 11:29:20;;;;;;;;;;;;;;;-144.99;69.82;52211.66;5025516;28;19929;-78
2023/07/30 11:31:48;;;;;;;;;;;;;;;-144.99;68.84;52203.50;5020479;28;19929;-77
2023/07/30 11:34:15;;;;;;;;;;;;;;;-144.99;68.17;52146.44;5023857;28;20410;-78
2023/07/30 11:36:42;;;;;;;;;;;;;;;-144.99;67.08;52132.19;5032854;28;20264;-78
2023/07/30 11:39:11;;;;;;;;;;;;;;;-144.99;66.83;52154.59;5025832;28;20016;-78
2023/07/30 11:41:37;;;;;;;;;;;;;;;-144.99;67.42;52174.97;5017892;28;19933;-77
2023/07/30 11:44:04;;;;;;;;;;;;;;;-144.99;66.68;52154.59;5022991;28;19926;-78
2023/07/30 11:46:32;;;;;;;;;;;;;;;-144.99;67.30;52174.97;5025359;28;20189;-78
2023/07/30 11:49:11;;;;;;;;;;;;;;;-144.99;66.46;52195.34;5024072;28;20001;-77
2023/07/30 11:51:38;;;;;;;;;;;;;;;-144.99;67.11;52113.84;5023347;28;19929;-77
2023/07/30 11:54:05;;;;;;;;;;;;;;;-144.99;66.51;52174.97;5023884;28;19940;-77
2023/07/30 11:56:33;;;;;;;;;;;;;;;-144.99;66.93;52168.84;5018994;28;19929;-78
2023/07/30 11:59:00;;;;;;;;;;;;;;;-144.99;65.71;52077.16;5026325;28;20015;-76
2023/07/30 12:01:28;;;;;;;;;;;;;;;-144.99;65.60;52077.16;5022879;28;19930;-77
2023/07/30 12:03:55;;;;;;;;;;;;;;;-144.99;64.73;52164.78;5014390;28;19926;-76
2023/07/30 12:06:22;;;;;;;;;;;;;;;-144.99;65.37;52191.28;5029039;28;19929;-78
2023/07/30 12:08:49;;;;;;;;;;;;;;;-144.99;65.38;52197.41;5012608;28;19929;-77
2023/07/30 12:11:17;;;;;;;;;;;;;;;-144.99;65.82;52211.66;5014388;28;19937;-76
2023/07/30 12:13:46;;;;;;;;;;;;;;;-144.99;66.34;52264.66;5017890;28;19935;-78
2023/07/30 12:16:13;;;;;;;;;;;;;;;-144.99;66.88;52236.13;5034431;28;20392;-76
2023/07/30 12:18:40;;;;;;;;;;;;;;;-144.99;67.42;52246.31;5027235;28;20210;-77
2023/07/30 12:21:07;;;;;;;;;;;;;;;-144.99;70.84;52264.66;5022015;28;20412;-77